Time;durP1;ratioP1;P1;durP2;ratioP2;P2;SDS_P1;SDS_P2;PMS_P1;PMS_P2;Temp;Humidity;BMP_temperature;BMP_pressure;BME280_temperature;BME280_humidity;BME280_pressure;Samples;Min_cycle;Max_cycle;Signal;HPM_P1;HPM_P2
2022/05/21 00:00:29;;;;;;;8.25;3.38;;;;;;;12.98;80.14;101987.13;5017070;27;96644;-33
2022/05/21 00:02:54;;;;;;;5.55;2.80;;;;;;;12.98;79.83;101984.38;5034302;28;96874;-33
2022/05/21 00:05:22;;;;;;;13.05;3.05;;;;;;;13.07;80.19;101997.50;5035342;28;97451;-33
2022/05/21 00:07:47;;;;;;;6.15;3.05;;;;;;;12.99;80.24;101987.03;5016784;28;102762;-33
2022/05/21 00:10:15;;;;;;;6.00;2.42;;;;;;;13.02;80.08;101992.31;5035124;28;96622;-33
2022/05/21 00:12:41;;;;;;;5.00;2.72;;;;;;;13.08;80.12;102000.13;5033635;28;96898;-33
2022/05/21 00:15:08;;;;;;;6.22;2.90;;;;;;;13.09;80.47;101984.72;5033482;28;101071;-33
2022/05/21 00:17:34;;;;;;;9.80;3.03;;;;;;;13.07;80.42;101990.22;5016443;28;102469;-33
2022/05/21 00:20:00;;;;;;;11.73;3.38;;;;;;;13.13;80.85;101994.44;5050737;27;96848;-33
2022/05/21 00:22:26;;;;;;;8.80;2.92;;;;;;;13.14;80.51;101996.22;5035197;28;96748;-33
2022/05/21 00:24:51;;;;;;;9.18;3.45;;;;;;;13.15;79.84;102004.28;5016515;28;101266;-33
2022/05/21 00:27:16;;;;;;;9.57;4.38;;;;;;;13.12;80.36;101996.28;5034468;28;126433;-33
2022/05/21 00:29:42;;;;;;;8.13;3.05;;;;;;;13.14;80.27;101990.78;5034768;28;104098;-33
2022/05/21 00:32:07;;;;;;;10.52;3.42;;;;;;;13.14;80.58;101997.09;5034100;28;116780;-33
2022/05/21 00:34:34;;;;;;;8.68;3.15;;;;;;;13.11;80.24;101997.25;5034778;28;97381;-33
2022/05/21 00:37:00;;;;;;;9.68;3.17;;;;;;;13.15;80.10;102001.56;5034601;28;98319;-33
2022/05/21 00:39:25;;;;;;;11.27;3.00;;;;;;;13.10;80.09;101990.03;5016876;28;96638;-33
2022/05/21 00:41:51;;;;;;;11.45;3.28;;;;;;;13.15;80.22;102001.56;5035092;28;96935;-33
2022/05/21 00:44:16;;;;;;;6.25;2.75;;;;;;;13.22;80.26;102003.94;5033692;28;126474;-33
2022/05/21 00:46:44;;;;;;;5.07;2.42;;;;;;;13.09;80.19;101987.41;5015928;28;121885;-33
2022/05/21 00:49:31;;;;;;;6.47;2.67;;;;;;;13.18;81.23;102004.13;5033541;28;96687;-33
2022/05/21 00:52:03;;;;;;;7.30;2.45;;;;;;;13.20;80.05;102004.03;5035490;28;96623;-33
2022/05/21 00:54:36;;;;;;;13.02;1.98;;;;;;;13.20;79.96;102000.44;5033093;28;101091;-33
2022/05/21 00:57:22;;;;;;;8.05;2.63;;;;;;;13.17;79.92;102005.06;5016305;28;101071;-34
2022/05/21 00:59:52;;;;;;;9.68;2.78;;;;;;;13.14;80.45;101988.06;5034177;28;96479;-33
2022/05/21 01:02:25;;;;;;;5.53;2.45;;;;;;;13.26;80.27;102006.44;5033092;28;96879;-33
2022/05/21 01:04:50;;;;;;;7.55;2.15;;;;;;;13.23;80.19;101997.53;5016140;28;100789;-33
2022/05/21 01:07:17;;;;;;;8.38;2.50;;;;;;;13.28;80.10;102003.66;5034345;28;99028;-33
2022/05/21 01:09:55;;;;;;;5.28;2.30;;;;;;;13.31;82.29;102000.75;5032844;28;96738;-33
2022/05/21 01:12:30;;;;;;;5.95;2.45;;;;;;;13.27;80.27;101997.31;5016144;28;96906;-33
2022/05/21 01:14:59;;;;;;;8.68;3.45;;;;;;;13.37;81.04;102003.13;5036569;28;100973;-33
2022/05/21 01:17:24;;;;;;;14.38;3.00;;;;;;;13.35;80.24;102000.53;5036710;28;100774;-33
2022/05/21 01:20:08;;;;;;;7.28;2.28;;;;;;;13.24;81.37;101981.13;5020583;28;96671;-34
2022/05/21 01:22:41;;;;;;;6.05;2.13;;;;;;;13.38;80.74;102007.63;4999668;28;98047;-33
2022/05/21 01:25:07;;;;;;;9.18;2.15;;;;;;;13.34;80.59;101996.03;5016379;28;121805;-33
2022/05/21 01:27:36;;;;;;;7.28;2.33;;;;;;;13.43;80.31;102002.81;5016213;28;100977;-33
2022/05/21 01:30:05;;;;;;;9.25;2.15;;;;;;;13.37;80.76;101992.25;5017896;28;96530;-33
2022/05/21 01:32:30;;;;;;;4.93;1.58;;;;;;;13.44;80.42;102004.56;5016388;28;96803;-34
2022/05/21 01:34:56;;;;;;;20.70;2.45;;;;;;;13.39;80.71;101998.50;5017181;28;106264;-33
2022/05/21 01:37:22;;;;;;;7.32;1.33;;;;;;;13.41;80.11;102004.72;5017439;28;97914;-33
2022/05/21 01:39:47;;;;;;;9.30;2.08;;;;;;;13.48;80.10;102016.16;4999691;28;96633;-33
2022/05/21 01:42:12;;;;;;;10.23;1.48;;;;;;;13.49;80.10;102010.66;5017528;28;105399;-33
2022/05/21 01:44:38;;;;;;;6.55;1.25;;;;;;;13.52;79.82;102010.47;5016435;28;123531;-33
2022/05/21 01:47:14;;;;;;;9.32;1.80;;;;;;;13.50;79.42;102004.22;5016357;28;117590;-34
2022/05/21 01:49:41;;;;;;;9.00;1.33;;;;;;;13.53;79.94;102008.63;5017032;28;96711;-33
2022/05/21 01:52:09;;;;;;;8.85;2.70;;;;;;;13.53;79.76;102014.94;4999370;28;96806;-33
2022/05/21 01:54:35;;;;;;;5.40;1.58;;;;;;;13.49;79.38;101999.75;4999137;28;101386;-33
2022/05/21 01:57:01;;;;;;;8.23;1.48;;;;;;;13.52;79.42;102004.16;4999102;28;100826;-33
2022/05/21 01:59:26;;;;;;;5.53;1.70;;;;;;;13.52;79.15;102017.78;5017471;28;96635;-34
2022/05/21 02:01:52;;;;;;;10.05;1.20;;;;;;;13.48;79.87;102005.28;4999085;28;96855;-33
2022/05/21 02:04:19;;;;;;;10.15;2.17;;;;;;;13.47;79.35;102007.13;5016871;28;97626;-33
2022/05/21 02:06:44;;;;;;;8.57;1.65;;;;;;;13.44;79.18;102006.41;5017203;28;98816;-33
2022/05/21 02:09:10;;;;;;;7.20;1.70;;;;;;;13.48;79.53;102021.63;5017189;28;96740;-33
2022/05/21 02:11:37;;;;;;;10.98;2.00;;;;;;;13.43;79.30;102004.66;5017015;28;96916;-33
2022/05/21 02:14:04;;;;;;;5.82;1.55;;;;;;;13.46;79.58;102024.41;4998129;28;100860;-34
2022/05/21 02:16:29;;;;;;;8.38;1.52;;;;;;;13.40;79.24;102018.44;4998740;28;100769;-33
2022/05/21 02:18:55;;;;;;;4.55;1.02;;;;;;;13.42;79.36;102022.84;5018400;28;96847;-33
2022/05/21 02:21:20;;;;;;;12.95;1.95;;;;;;;13.41;79.13;102015.63;5016141;28;116301;-33
2022/05/21 02:23:46;;;;;;;4.60;1.10;;;;;;;13.43;79.20;102026.44;5016053;28;99592;-33
2022/05/21 02:26:11;;;;;;;12.05;1.83;;;;;;;13.43;79.53;102026.44;4998406;28;101542;-33
2022/05/21 02:28:37;;;;;;;6.00;1.75;;;;;;;13.40;79.45;102024.75;5016939;28;96604;-33
2022/05/21 02:31:08;;;;;;;7.47;1.58;;;;;;;13.37;79.32;102017.66;5017100;28;96834;-33
2022/05/21 02:33:34;;;;;;;7.18;1.38;;;;;;;13.34;79.48;102016.91;5016638;28;98085;-33
2022/05/21 02:35:59;;;;;;;6.95;1.35;;;;;;;13.29;79.58;102016.28;5016100;28;107885;-33
2022/05/21 02:41:10;;;;;;;7.10;1.58;;;;;;;13.30;79.25;102016.22;5017130;28;96435;-34
2022/05/21 02:43:35;;;;;;;7.93;1.45;;;;;;;13.21;78.95;102016.69;4998452;28;100830;-33
2022/05/21 02:46:02;;;;;;;10.02;1.65;;;;;;;13.23;78.99;102013.84;5013930;28;127079;-33
2022/05/21 02:48:29;;;;;;;7.22;1.15;;;;;;;13.28;78.95;102023.59;5016775;28;96540;-33
2022/05/21 02:50:55;;;;;;;6.47;1.35;;;;;;;13.21;78.97;102016.69;5015174;28;96854;-33
2022/05/21 02:53:20;;;;;;;4.80;1.15;;;;;;;13.25;78.72;102036.44;5016275;28;97130;-33
2022/05/21 02:55:46;;;;;;;6.30;1.48;;;;;;;13.21;78.61;102015.81;5016401;28;97795;-34
2022/05/21 02:58:12;;;;;;;5.35;1.10;;;;;;;13.27;78.92;102026.34;4998432;28;96583;-33
2022/05/21 03:00:38;;;;;;;5.13;1.15;;;;;;;13.16;78.56;102005.16;4998600;28;96459;-33
2022/05/21 03:03:06;;;;;;;8.30;1.50;;;;;;;13.14;78.63;102020.69;5015697;28;97981;-33
2022/05/21 03:05:31;;;;;;;8.18;1.80;;;;;;;13.14;78.56;102015.25;5015894;28;99266;-33
2022/05/21 03:07:58;;;;;;;4.07;1.15;;;;;;;13.11;78.25;102018.16;5016490;28;96730;-33
2022/05/21 03:10:27;;;;;;;7.85;1.23;;;;;;;13.20;78.32;102028.50;5016170;28;96766;-33
2022/05/21 03:13:01;;;;;;;2.72;1.13;;;;;;;13.18;78.40;102020.44;5015652;28;98948;-33
2022/05/21 03:15:33;;;;;;;4.68;1.10;;;;;;;13.22;78.33;102023.00;4997909;28;101003;-33
2022/05/21 03:18:00;;;;;;;6.45;0.95;;;;;;;13.16;78.18;102030.53;4998281;28;96659;-33
2022/05/21 03:20:25;;;;;;;11.27;1.73;;;;;;;13.15;78.10;102027.88;5016325;28;96934;-33
2022/05/21 03:22:51;;;;;;;5.00;1.13;;;;;;;13.15;78.15;102036.91;5015287;28;98805;-33
2022/05/21 03:25:16;;;;;;;8.18;1.88;;;;;;;13.14;78.07;102040.63;5015782;28;102329;-33
2022/05/21 03:27:42;;;;;;;3.63;1.17;;;;;;;13.13;78.64;102033.44;5015483;28;96533;-33
2022/05/21 03:30:11;;;;;;;6.90;1.02;;;;;;;13.11;78.23;102026.31;5015905;28;96815;-33
2022/05/21 03:32:37;;;;;;;9.48;1.13;;;;;;;13.14;78.16;102039.75;5014261;28;100883;-33
2022/05/21 03:35:22;;;;;;;10.07;0.98;;;;;;;13.15;78.08;102036.91;5015719;28;98062;-33
2022/05/21 03:37:51;;;;;;;9.23;1.60;;;;;;;13.11;78.03;102029.91;4997550;28;96636;-33
2022/05/21 03:40:21;;;;;;;10.70;1.52;;;;;;;13.07;78.11;102033.75;5015907;28;96747;-33
2022/05/21 03:42:46;;;;;;;8.35;1.58;;;;;;;13.03;78.12;102034.84;4997303;28;100881;-33
2022/05/21 03:45:13;;;;;;;9.00;1.23;;;;;;;12.99;77.86;102030.56;5015704;28;99200;-33
2022/05/21 03:47:41;;;;;;;3.92;1.10;;;;;;;13.06;77.85;102041.97;4997698;28;96605;-33
2022/05/21 03:50:07;;;;;;;5.38;1.10;;;;;;;12.97;77.75;102024.31;4997489;28;96862;-33
2022/05/21 03:52:33;;;;;;;5.30;1.50;;;;;;;13.01;77.47;102033.19;5014574;28;100554;-33
2022/05/21 03:54:58;;;;;;;7.43;1.35;;;;;;;12.97;77.37;102016.16;5015411;28;97834;-33
2022/05/21 03:57:23;;;;;;;2.65;1.50;;;;;;;13.00;76.97;102037.75;5014608;28;117682;-33
2022/05/21 03:59:49;;;;;;;8.82;1.55;;;;;;;12.96;77.03;102031.56;5015787;28;96834;-33
2022/05/21 04:02:14;;;;;;;7.70;1.35;;;;;;;13.01;76.77;102044.94;5014833;28;106848;-33
2022/05/21 04:04:39;;;;;;;9.77;1.30;;;;;;;12.98;76.85;102039.66;5015018;28;97775;-33
2022/05/21 04:07:06;;;;;;;11.13;2.00;;;;;;;12.98;76.52;102034.22;5015457;28;96552;-33
2022/05/21 04:09:32;;;;;;;4.32;0.95;;;;;;;12.97;76.45;102035.19;4997592;28;96795;-33
2022/05/21 04:11:57;;;;;;;2.97;0.88;;;;;;;12.98;76.39;102034.22;5014299;28;116064;-33
2022/05/21 04:14:30;;;;;;;13.15;1.67;;;;;;;13.00;76.24;102045.91;5015054;28;97179;-33
2022/05/21 04:16:57;;;;;;;10.48;1.38;;;;;;;13.00;76.30;102061.34;5015017;28;96553;-34
2022/05/21 04:19:23;;;;;;;1.77;0.95;;;;;;;13.00;76.23;102061.34;4996753;28;96983;-33
2022/05/21 04:21:49;;;;;;;1.30;0.43;;;;;;;13.03;75.53;102066.63;4996774;28;101036;-33
2022/05/21 04:24:14;;;;;;;8.20;1.42;;;;;;;13.00;75.77;102064.94;4996560;28;100776;-33
2022/05/21 04:26:41;;;;;;;10.23;1.35;;;;;;;13.00;75.96;102059.50;5015057;28;96637;-33
2022/05/21 04:29:06;;;;;;;3.17;1.38;;;;;;;13.01;75.99;102073.97;5015099;28;96795;-33
2022/05/21 04:31:31;;;;;;;3.80;0.93;;;;;;;12.94;75.60;102060.72;4995481;28;125704;-34
2022/05/21 04:33:56;;;;;;;3.35;0.88;;;;;;;13.03;75.71;102074.78;5014169;28;126716;-33
2022/05/21 04:36:22;;;;;;;4.20;1.42;;;;;;;12.93;75.74;102063.50;5014253;28;114670;-33
2022/05/21 04:38:51;;;;;;;10.15;1.83;;;;;;;13.00;76.02;102077.66;5015178;28;96798;-33
2022/05/21 04:41:17;;;;;;;13.30;2.53;;;;;;;12.91;75.70;102065.41;5012770;28;100829;-33
2022/05/21 04:43:43;;;;;;;6.00;1.30;;;;;;;12.88;75.78;102055.59;5014445;28;99856;-33
2022/05/21 04:46:09;;;;;;;2.95;1.10;;;;;;;12.92;75.81;102070.78;5013785;28;116999;-33
2022/05/21 04:48:34;;;;;;;4.97;1.17;;;;;;;12.94;75.68;102076.13;4996730;28;96822;-33
2022/05/21 04:51:02;;;;;;;10.48;1.58;;;;;;;13.00;75.67;102080.38;5014536;28;97723;-33
2022/05/21 04:53:28;;;;;;;5.60;0.88;;;;;;;13.05;75.57;102081.91;4996273;28;101268;-34
2022/05/21 04:55:54;;;;;;;5.03;0.98;;;;;;;13.02;75.80;102079.34;5014923;28;96564;-34
2022/05/21 04:58:19;;;;;;;16.90;1.33;;;;;;;13.04;75.73;102072.00;5015309;28;96906;-33
2022/05/21 05:00:44;;;;;;;2.22;1.00;;;;;;;13.02;75.45;102081.19;4996201;28;99468;-33
2022/05/21 05:03:15;;;;;;;4.53;0.77;;;;;;;13.09;75.53;102094.38;5028914;28;125467;-33
2022/05/21 05:05:41;;;;;;;5.88;0.68;;;;;;;13.07;75.56;102085.44;4995907;28;96702;-33
2022/05/21 05:08:07;;;;;;;3.78;0.88;;;;;;;13.10;75.57;102095.25;4996561;28;96828;-34
2022/05/21 05:10:33;;;;;;;8.45;1.02;;;;;;;13.11;75.67;102094.31;5014134;28;98077;-34
2022/05/21 05:12:58;;;;;;;3.20;0.93;;;;;;;13.21;75.35;102103.75;4996159;28;101647;-33
2022/05/21 05:15:24;;;;;;;6.63;1.15;;;;;;;13.20;75.40;102088.38;5013575;28;110068;-34
2022/05/21 05:17:49;;;;;;;6.32;1.38;;;;;;;13.24;75.15;102092.69;5014627;28;96811;-34
2022/05/21 05:20:15;;;;;;;4.45;1.00;;;;;;;13.29;75.02;102109.69;5013827;28;97875;-33
2022/05/21 05:22:40;;;;;;;4.90;1.15;;;;;;;13.34;74.80;102099.44;5014481;28;101937;-33
2022/05/21 05:25:06;;;;;;;10.50;1.33;;;;;;;13.42;74.86;102100.88;5013140;28;118257;-33
2022/05/21 05:27:31;;;;;;;4.88;1.00;;;;;;;13.49;74.92;102114.09;4996356;28;96802;-34
2022/05/21 05:29:57;;;;;;;12.18;1.45;;;;;;;13.51;74.71;102106.69;5012610;28;125742;-34
2022/05/21 05:32:22;;;;;;;6.82;1.38;;;;;;;13.60;74.46;102113.50;5014189;28;97756;-34
2022/05/21 05:34:47;;;;;;;4.90;0.73;;;;;;;13.67;74.15;102112.22;5013475;28;116505;-34
2022/05/21 05:37:13;;;;;;;10.10;1.25;;;;;;;13.71;74.29;102110.22;5013521;28;116758;-33
2022/05/21 05:39:38;;;;;;;7.00;1.40;;;;;;;13.74;74.06;102110.91;5013743;28;99264;-33
2022/05/21 05:42:04;;;;;;;6.88;1.08;;;;;;;13.76;73.98;102108.09;5013203;28;120684;-33
2022/05/21 05:44:31;;;;;;;5.20;1.00;;;;;;;13.80;73.55;102104.25;4979258;28;96687;-33
2022/05/21 05:46:56;;;;;;;8.68;1.23;;;;;;;13.81;73.55;102104.16;5013026;28;96831;-33
2022/05/21 05:49:22;;;;;;;4.13;1.13;;;;;;;13.96;73.26;102124.22;5013996;28;97927;-33
2022/05/21 05:51:47;;;;;;;5.97;1.10;;;;;;;14.01;73.19;102105.78;5011735;28;114857;-33
2022/05/21 05:54:12;;;;;;;7.55;1.40;;;;;;;14.12;72.86;102112.47;5012579;28;117681;-33
2022/05/21 05:56:42;;;;;;;7.28;1.65;;;;;;;14.19;72.88;102117.50;5014090;28;96744;-33
2022/05/21 06:02:57;;;;;;;5.97;1.55;;;;;;;14.31;72.53;102113.19;5017283;28;96986;-33
2022/05/21 06:04:39;;;;;;;11.38;1.75;;;;;;;14.45;72.23;102128.75;5017225;28;96601;-33
2022/05/21 06:07:05;;;;;;;1.70;0.95;;;;;;;14.53;72.15;102126.47;4999254;28;96542;-33
2022/05/21 06:09:32;;;;;;;7.03;1.42;;;;;;;14.60;72.16;102124.31;5015883;28;126620;-34
2022/05/21 06:11:57;;;;;;;6.32;1.38;;;;;;;14.71;71.97;102132.75;5017073;28;99235;-33
2022/05/21 06:14:23;;;;;;;9.15;1.23;;;;;;;14.84;71.89;102141.94;5015703;28;96610;-33
2022/05/21 06:16:48;;;;;;;3.78;0.85;;;;;;;14.91;71.77;102138.88;5016215;28;117834;-33
2022/05/21 06:19:13;;;;;;;6.68;0.88;;;;;;;14.90;71.02;102142.56;5015139;28;126538;-33
2022/05/21 06:21:38;;;;;;;4.70;1.17;;;;;;;14.94;71.38;102141.41;5016684;28;103896;-33
2022/05/21 06:24:05;;;;;;;10.73;1.17;;;;;;;15.02;71.29;102136.41;5016552;28;96648;-33
2022/05/21 06:26:30;;;;;;;6.97;1.20;;;;;;;15.14;70.92;102137.50;5017006;28;96775;-33
2022/05/21 06:28:55;;;;;;;6.68;1.25;;;;;;;15.30;70.55;102146.50;5015735;28;126842;-33
2022/05/21 06:31:21;;;;;;;6.35;1.15;;;;;;;15.36;70.69;102154.34;5016076;28;126413;-33
2022/05/21 06:33:46;;;;;;;6.70;1.88;;;;;;;15.35;70.26;102159.88;5016016;28;117130;-33
2022/05/21 06:36:14;;;;;;;8.70;1.60;;;;;;;15.37;69.82;102163.41;5017180;28;96635;-33
2022/05/21 06:38:41;;;;;;;6.15;1.38;;;;;;;15.50;69.65;102164.41;4998441;28;101149;-34
2022/05/21 06:41:07;;;;;;;6.57;1.45;;;;;;;15.56;69.38;102158.56;4998273;28;101318;-33
2022/05/21 06:43:33;;;;;;;5.55;1.50;;;;;;;15.68;69.21;102151.47;4998270;28;96642;-33
2022/05/21 06:45:58;;;;;;;12.23;1.38;;;;;;;15.80;69.01;102171.72;5016683;28;96914;-33
2022/05/21 06:48:24;;;;;;;11.90;1.30;;;;;;;15.85;68.37;102184.13;5015761;28;114307;-33
2022/05/21 06:50:49;;;;;;;9.02;1.63;;;;;;;15.95;68.92;102178.97;5016441;28;97728;-33
2022/05/21 06:53:14;;;;;;;12.38;1.98;;;;;;;16.01;68.83;102178.56;5015492;28;116444;-33
2022/05/21 06:55:40;;;;;;;15.05;2.00;;;;;;;16.15;68.25;102194.09;5016341;28;96888;-33
2022/05/21 06:58:06;;;;;;;7.63;1.55;;;;;;;16.25;67.63;102186.19;5016321;28;97898;-33
2022/05/21 07:00:32;;;;;;;8.52;1.63;;;;;;;16.25;67.29;102178.84;4998432;28;100699;-33
2022/05/21 07:02:57;;;;;;;2.70;1.10;;;;;;;16.40;66.93;102192.50;5016526;28;96467;-33
2022/05/21 07:08:20;;;;;;;12.88;1.25;;;;;;;16.47;66.32;102178.34;5015982;28;97111;-33
2022/05/21 07:10:46;;;;;;;4.38;1.45;;;;;;;16.35;66.68;102193.72;4996546;28;100763;-33
2022/05/21 07:13:24;;;;;;;11.90;1.58;;;;;;;16.19;67.54;102194.78;4998128;28;96754;-33
2022/05/21 07:15:52;;;;;;;5.70;1.35;;;;;;;16.35;67.46;102195.53;4998124;28;96790;-33
2022/05/21 07:18:20;;;;;;;8.07;1.75;;;;;;;16.28;66.19;102196.91;4997364;28;100843;-33
2022/05/21 07:20:46;;;;;;;7.28;1.40;;;;;;;16.14;67.74;102200.53;5031221;28;100747;-33
2022/05/21 07:23:12;;;;;;;8.63;2.00;;;;;;;16.07;68.11;102200.06;4997840;28;96572;-33
2022/05/21 07:25:40;;;;;;;4.50;1.40;;;;;;;15.99;68.55;102201.50;4998408;28;96902;-33
2022/05/21 07:28:07;;;;;;;8.98;1.05;;;;;;;15.96;68.39;102218.97;4997622;28;100811;-33
2022/05/21 07:30:33;;;;;;;10.63;2.03;;;;;;;15.84;68.41;102203.34;5015677;28;99320;-33
2022/05/21 07:32:58;;;;;;;9.98;1.50;;;;;;;15.87;68.69;102212.25;5015632;28;96770;-33
2022/05/21 07:35:26;;;;;;;9.23;1.58;;;;;;;15.86;68.69;102213.19;5015011;28;117722;-33
2022/05/21 07:37:52;;;;;;;12.15;1.95;;;;;;;15.88;68.58;102229.50;4997155;28;100998;-33
2022/05/21 07:40:19;;;;;;;5.15;1.95;;;;;;;15.96;68.76;102229.91;4996941;28;100381;-35
2022/05/21 07:42:44;;;;;;;6.65;1.50;;;;;;;16.20;68.07;102229.34;5015148;28;96913;-33
2022/05/21 07:45:12;;;;;;;7.90;1.60;;;;;;;16.21;67.87;102228.34;5015869;28;96763;-33
2022/05/21 07:47:38;;;;;;;8.07;2.10;;;;;;;16.24;67.40;102234.53;4997160;28;101606;-33
2022/05/21 07:50:04;;;;;;;5.25;1.35;;;;;;;16.31;67.88;102244.09;5015957;28;97278;-33
2022/05/21 07:52:30;;;;;;;12.57;2.33;;;;;;;16.41;67.69;102230.72;5015577;28;96689;-33
2022/05/21 07:54:56;;;;;;;10.48;2.03;;;;;;;16.56;67.61;102234.31;4997560;28;96886;-33
2022/05/21 07:57:22;;;;;;;7.53;1.42;;;;;;;16.67;66.95;102239.97;4995592;28;100995;-34
2022/05/21 07:59:47;;;;;;;23.58;2.85;;;;;;;16.73;67.06;102244.16;5014145;28;98752;-33
2022/05/21 08:02:15;;;;;;;8.02;1.52;;;;;;;16.85;66.73;102240.66;5014841;28;107184;-34
2022/05/21 08:04:42;;;;;;;5.63;1.92;;;;;;;17.04;66.66;102236.69;4997344;28;96826;-33
2022/05/21 08:07:08;;;;;;;9.77;2.30;;;;;;;16.95;66.51;102247.28;4996982;28;100747;-33
2022/05/21 08:09:33;;;;;;;4.45;2.20;;;;;;;17.02;66.65;102252.34;4997135;28;100716;-33
2022/05/21 08:11:59;;;;;;;14.55;2.90;;;;;;;17.10;65.95;102244.50;5015225;28;96606;-33
2022/05/21 08:14:24;;;;;;;12.55;3.13;;;;;;;17.19;66.25;102232.94;5015564;28;96822;-34
2022/05/21 08:16:49;;;;;;;10.60;2.45;;;;;;;17.26;66.23;102250.72;5014763;28;104721;-34
2022/05/21 08:19:16;;;;;;;8.25;2.45;;;;;;;17.37;65.48;102239.88;5013489;28;124215;-33
2022/05/21 08:21:41;;;;;;;13.13;2.30;;;;;;;17.53;65.64;102250.69;5014364;28;96537;-33
2022/05/21 08:26:57;;;;;;;10.95;2.63;;;;;;;17.62;63.28;102255.53;5015079;28;97087;-33
2022/05/21 08:29:35;;;;;;;9.38;2.13;;;;;;;17.48;62.43;102255.59;5014958;28;97912;-34
2022/05/21 08:32:03;;;;;;;10.52;3.10;;;;;;;17.45;65.38;102249.44;5015026;28;96859;-33
2022/05/21 08:34:29;;;;;;;6.57;2.20;;;;;;;17.37;65.05;102260.94;4997061;28;96853;-33
2022/05/21 08:36:55;;;;;;;7.68;2.15;;;;;;;17.36;65.12;102270.16;4996566;28;101183;-33
2022/05/21 08:39:21;;;;;;;11.35;2.30;;;;;;;17.33;65.09;102251.19;4996989;28;100671;-33
2022/05/21 08:41:53;;;;;;;6.57;1.75;;;;;;;17.44;64.72;102266.88;5013545;28;96633;-33
2022/05/21 08:44:29;;;;;;;6.85;1.90;;;;;;;17.59;64.43;102241.16;4996838;28;97359;-33
2022/05/21 08:47:18;;;;;;;7.15;2.10;;;;;;;17.83;64.44;102244.97;5014318;28;97571;-33
2022/05/21 08:49:48;;;;;;;6.25;2.35;;;;;;;17.78;63.47;102249.88;5014367;28;99174;-34
2022/05/21 08:52:41;;;;;;;5.13;1.83;;;;;;;17.59;64.18;102255.75;5014693;28;96586;-33
2022/05/21 08:55:08;;;;;;;12.80;2.65;;;;;;;17.55;64.42;102243.25;5014895;28;96560;-34
2022/05/21 08:58:03;;;;;;;8.50;2.95;;;;;;;17.50;63.65;102259.13;5030014;28;98305;-34
2022/05/21 09:00:36;;;;;;;10.60;2.65;;;;;;;17.38;64.55;102252.63;4996295;28;100793;-34
2022/05/21 09:03:06;;;;;;;9.60;2.20;;;;;;;17.26;64.54;102269.00;4996677;28;96686;-34
2022/05/21 09:05:32;;;;;;;13.13;2.63;;;;;;;17.16;64.90;102275.09;4996808;28;96840;-34
2022/05/21 09:08:18;;;;;;;9.73;2.33;;;;;;;17.21;64.26;102269.31;5014139;28;97504;-34
2022/05/21 09:11:01;;;;;;;9.40;2.38;;;;;;;17.31;64.38;102264.09;4995292;28;101195;-34
2022/05/21 09:13:41;;;;;;;3.42;1.70;;;;;;;17.35;64.39;102255.56;5014273;28;96586;-34
2022/05/21 09:18:54;;;;;;;6.55;1.70;;;;;;;17.43;64.38;102252.31;5003631;28;97151;-34
2022/05/21 09:21:23;;;;;;;8.73;1.98;;;;;;;17.39;63.68;102246.16;5029009;28;101575;-33
2022/05/21 09:23:52;;;;;;;11.80;1.80;;;;;;;17.51;64.21;102257.25;5029723;28;96761;-33
2022/05/21 09:26:23;;;;;;;6.25;1.80;;;;;;;17.58;63.58;102261.34;5014353;28;96828;-33
2022/05/21 09:28:49;;;;;;;7.22;1.90;;;;;;;17.63;64.02;102259.16;5014312;28;97941;-33
2022/05/21 09:31:29;;;;;;;3.50;1.65;;;;;;;17.99;63.17;102261.22;5031875;27;101272;-33
2022/05/21 09:33:55;;;;;;;11.98;1.95;;;;;;;18.22;62.67;102251.38;5013491;28;96625;-34
2022/05/21 09:36:33;;;;;;;10.15;1.98;;;;;;;18.44;61.98;102261.66;5033231;28;96973;-34
2022/05/21 09:38:58;;;;;;;3.85;1.63;;;;;;;18.35;62.17;102256.88;4999002;28;101062;-34
2022/05/21 09:41:30;;;;;;;9.60;1.83;;;;;;;18.40;61.99;102242.78;5017257;28;108711;-34
2022/05/21 09:46:46;;;;;;;5.75;1.67;;;;;;;18.85;60.89;102248.66;5015425;28;96669;-34
2022/05/21 09:49:21;;;;;;;8.93;1.95;;;;;;;18.92;59.89;102255.47;5015970;28;100769;-34
2022/05/21 09:52:01;;;;;;;2.75;1.63;;;;;;;18.85;60.20;102257.81;5017474;28;97713;-34
2022/05/21 09:54:32;;;;;;;14.05;2.88;;;;;;;18.86;60.95;102264.19;5016048;28;96762;-34
2022/05/21 09:56:59;;;;;;;7.97;1.88;;;;;;;18.71;60.48;102241.44;5017633;28;99773;-33
2022/05/21 09:59:28;;;;;;;6.95;2.25;;;;;;;18.60;60.71;102255.94;5032615;28;100837;-34
2022/05/21 10:01:57;;;;;;;9.73;1.92;;;;;;;18.54;61.51;102259.13;5032332;28;100871;-34
2022/05/21 10:04:46;;;;;;;9.98;2.40;;;;;;;18.49;60.91;102244.88;5015462;28;96627;-34
2022/05/21 10:11:00;;;;;;;11.43;2.13;;;;;;;18.54;61.78;102272.84;5015779;28;97135;-34
2022/05/21 10:13:42;;;;;;;11.23;2.00;;;;;;;18.66;61.16;102282.97;5015464;28;101214;-34
2022/05/21 10:16:15;;;;;;;;;;;;;;;18.70;60.19;102282.72;5016729;28;96755;-34
2022/05/21 10:18:40;;;;;;;;;;;;;;;18.70;60.41;102282.72;5017257;28;96785;-34
2022/05/21 10:21:29;;;;;;;6.63;1.63;;;;;;;18.84;60.42;102282.63;5017065;28;97849;-34
2022/05/21 10:24:02;;;;;;;10.77;1.77;;;;;;;18.96;59.85;102278.09;5015348;28;101333;-34
2022/05/21 10:26:46;;;;;;;13.88;1.90;;;;;;;19.10;60.25;102297.16;4998987;28;96596;-34
2022/05/21 10:29:56;;;;;;;8.85;1.92;;;;;;;19.23;59.18;102289.75;5017205;28;96569;-34
2022/05/21 10:32:42;;;;;;;7.35;1.80;;;;;;;19.32;59.64;102296.44;5006937;28;98026;-34
2022/05/21 10:35:19;;;;;;;2.40;1.30;;;;;;;19.33;59.87;102284.47;5016134;28;97928;-33
2022/05/21 10:38:14;;;;;;;9.45;1.63;;;;;;;19.21;58.95;102282.63;5016501;28;96664;-34
2022/05/21 10:40:45;;;;;;;11.05;1.77;;;;;;;19.09;59.46;102298.16;5015360;28;96891;-34
2022/05/21 10:43:16;;;;;;;4.75;1.70;;;;;;;19.11;59.46;102285.19;5016336;28;99436;-34
2022/05/21 10:45:55;;;;;;;3.33;1.37;;;;;;;19.04;57.40;102287.53;5016489;28;97326;-34
2022/05/21 10:48:39;;;;;;;10.23;1.90;;;;;;;18.95;58.04;102292.81;4998763;28;96537;-34
2022/05/21 10:51:13;;;;;;;8.65;1.67;;;;;;;19.03;59.44;102295.88;4999062;28;96718;-34
2022/05/21 10:53:48;;;;;;;12.57;1.60;;;;;;;19.25;59.28;102293.25;5015069;28;101216;-34
2022/05/21 10:56:50;;;;;;;8.18;1.80;;;;;;;19.44;58.10;102291.88;5016633;28;97341;-34
2022/05/21 11:00:01;;;;;;;10.65;1.70;;;;;;;19.52;58.24;102292.16;5016044;28;96730;-34
2022/05/21 11:03:04;;;;;;;8.77;1.95;;;;;;;19.67;58.04;102301.13;4954327;28;96768;-33
2022/05/21 11:05:40;;;;;;;14.80;2.13;;;;;;;20.04;57.48;102292.75;5015856;28;99287;-34
2022/05/21 11:08:27;;;;;;;15.13;2.13;;;;;;;20.20;57.22;102297.94;5014617;28;101064;-34
2022/05/21 11:11:13;;;;;;;9.23;1.98;;;;;;;20.38;57.33;102302.00;5014928;28;96579;-34
2022/05/21 11:13:50;;;;;;;7.32;1.48;;;;;;;20.54;55.82;102298.84;5016446;28;96503;-34
2022/05/21 11:16:29;;;;;;;10.63;2.20;;;;;;;20.64;56.75;102294.41;4997971;28;101081;-34
2022/05/21 11:19:02;;;;;;;8.77;2.10;;;;;;;20.97;56.43;102298.13;4997639;28;100781;-34
2022/05/21 11:21:34;;;;;;;9.20;1.95;;;;;;;21.19;55.75;102287.09;4998253;28;96635;-34
2022/05/21 11:24:10;;;;;;;16.67;2.63;;;;;;;21.15;55.26;102299.38;4997966;28;96717;-34
2022/05/21 11:26:50;;;;;;;7.45;2.30;;;;;;;21.06;55.34;102293.75;4997280;28;102655;-34
2022/05/21 11:29:38;;;;;;;9.65;1.83;;;;;;;20.79;56.14;102298.66;5016020;28;98072;-34
2022/05/21 11:37:49;;;;;;;7.07;1.55;;;;;;;20.29;56.70;102289.84;5016178;28;97043;-34
2022/05/21 11:47:06;;;;;;;16.95;2.38;;;;;;;20.44;55.65;102298.72;4989399;28;97013;-34
2022/05/21 11:49:57;;;;;;;7.75;2.15;;;;;;;20.42;56.85;102297.09;5014878;28;111857;-34
2022/05/21 11:52:34;;;;;;;8.43;2.17;;;;;;;20.47;56.41;102301.22;5007715;28;99279;-34
2022/05/21 11:55:14;;;;;;;9.85;1.77;;;;;;;20.52;55.75;102296.25;5015059;28;96590;-34
2022/05/21 11:57:39;;;;;;;7.63;1.48;;;;;;;20.68;56.02;102295.91;4997124;28;96802;-34
2022/05/21 12:00:09;;;;;;;13.27;1.53;;;;;;;20.47;55.04;102290.22;5015131;28;110053;-34
2022/05/21 12:02:38;;;;;;;6.47;1.73;;;;;;;20.62;56.59;102295.50;4997136;28;101220;-34
2022/05/21 12:05:10;;;;;;;5.55;1.52;;;;;;;20.83;55.78;102290.13;4997394;28;96598;-34